ADM418 VNLK-VNLK
Flight info
| Callsign | ADM418 |
|---|---|
| Flight time | 0h 11m |
| Altitude | 13500 |
| Route | LOCAL |
| Aircraft | DA62/L-SDFGRY/C |
Departure
| Time | 2025-04-30 22:24 |
|---|---|
| Airport | Tenzing-Hillary Airport (VNLK) |
Arrival
| Time | 2025-04-30 22:35 |
|---|---|
| Airport | Tenzing-Hillary Airport (VNLK) |
| Time | Latitude | Longitude | Altitude | Speed | Heading |
|---|---|---|---|---|---|
| 2025-04-30 22:10 | 27.68752 | 86.73157 | 9465 ft | 0 kts | 276° |
| 2025-04-30 22:17 | 27.68750 | 86.73184 | 9466 ft | 0 kts | 275° |
| 2025-04-30 22:18 | 27.68762 | 86.73105 | 9457 ft | 24 kts | 230° |
| 2025-04-30 22:19 | 27.68226 | 86.72126 | 9241 ft | 123 kts | 237° |
| 2025-04-30 22:19 | 27.66972 | 86.70613 | 9390 ft | 151 kts | 216° |
| 2025-04-30 22:20 | 27.64726 | 86.70161 | 7999 ft | 187 kts | 175° |
| 2025-04-30 22:20 | 27.63411 | 86.69281 | 8379 ft | 118 kts | 307° |
| 2025-04-30 22:21 | 27.65030 | 86.70105 | 8437 ft | 157 kts | 30° |
| 2025-04-30 22:21 | 27.66044 | 86.70582 | 8601 ft | 165 kts | 17° |
| 2025-04-30 22:21 | 27.68384 | 86.71255 | 8778 ft | 180 kts | 6° |
| 2025-04-30 22:22 | 27.71977 | 86.70897 | 9444 ft | 179 kts | 0° |
| 2025-04-30 22:23 | 27.74450 | 86.71016 | 10005 ft | 170 kts | 1° |
| 2025-04-30 22:23 | 27.76669 | 86.71663 | 10572 ft | 170 kts | 30° |
| 2025-04-30 22:24 | 27.78559 | 86.72401 | 11721 ft | 125 kts | 10° |
| 2025-04-30 22:24 | 27.80160 | 86.72030 | 12335 ft | 117 kts | 346° |
| 2025-04-30 22:25 | 27.81752 | 86.71242 | 13060 ft | 119 kts | 325° |
| 2025-04-30 22:25 | 27.81645 | 86.70169 | 13498 ft | 130 kts | 154° |
| 2025-04-30 22:25 | 27.81218 | 86.70912 | 12617 ft | 129 kts | 99° |
| 2025-04-30 22:26 | 27.78440 | 86.71642 | 12938 ft | 130 kts | 144° |
| 2025-04-30 22:27 | 27.79219 | 86.72581 | 12948 ft | 121 kts | 11° |
| 2025-04-30 22:27 | 27.80494 | 86.72013 | 12491 ft | 113 kts | 309° |
| 2025-04-30 22:28 | 27.81786 | 86.70681 | 13160 ft | 132 kts | 348° |
| 2025-04-30 22:28 | 27.82167 | 86.72735 | 12790 ft | 188 kts | 99° |
| 2025-04-30 22:29 | 27.80173 | 86.72505 | 13337 ft | 157 kts | 236° |
| 2025-04-30 22:29 | 27.81147 | 86.71150 | 12282 ft | 119 kts | 310° |
| 2025-04-30 22:29 | 27.81613 | 86.70358 | 13386 ft | 149 kts | 292° |
| 2025-04-30 22:30 | 27.79464 | 86.70731 | 12656 ft | 177 kts | 123° |
| 2025-04-30 22:31 | 27.80053 | 86.72305 | 13124 ft | 110 kts | 4° |
| 2025-04-30 22:31 | 27.81077 | 86.71284 | 12911 ft | 150 kts | 309° |
| 2025-04-30 22:32 | 27.82253 | 86.71588 | 13185 ft | 154 kts | 78° |
| 2025-04-30 22:32 | 27.81769 | 86.74064 | 13576 ft | 157 kts | 160° |
| 2025-04-30 22:33 | 27.79973 | 86.72866 | 12883 ft | 135 kts | 259° |
| 2025-04-30 22:33 | 27.80344 | 86.72031 | 12450 ft | 114 kts | 326° |
| 2025-04-30 22:33 | 27.81594 | 86.70889 | 12850 ft | 150 kts | 346° |
| 2025-04-30 22:34 | 27.81856 | 86.70832 | 12824 ft | 150 kts | 356° |
| 2025-04-30 22:35 | 27.68752 | 86.73157 | 9465 ft | 0 kts | 276° |
| 2025-04-30 22:36 | 27.68747 | 86.73201 | 9468 ft | 0 kts | 276° |
| 2025-04-30 22:37 | 27.68769 | 86.73169 | 9468 ft | 0 kts | 308° |
| 2025-04-30 22:37 | 27.68741 | 86.73070 | 9438 ft | 39 kts | 238° |
| 2025-04-30 22:38 | 27.66831 | 86.71232 | 8999 ft | 167 kts | 201° |
| 2025-04-30 22:39 | 27.64535 | 86.70220 | 9063 ft | 178 kts | 199° |
| 2025-04-30 22:39 | 27.62273 | 86.69411 | 9628 ft | 167 kts | 199° |
| 2025-04-30 22:40 | 27.60119 | 86.68587 | 10180 ft | 162 kts | 198° |
| 2025-04-30 22:40 | 27.57950 | 86.68082 | 10689 ft | 158 kts | 182° |
| 2025-04-30 22:41 | 27.55747 | 86.68092 | 11212 ft | 158 kts | 180° |
| 2025-04-30 22:41 | 27.54695 | 86.67795 | 11429 ft | 157 kts | 205° |
| 2025-04-30 22:41 | 27.52740 | 86.66696 | 11963 ft | 158 kts | 206° |
| 2025-04-30 22:42 | 27.49775 | 86.65023 | 12777 ft | 160 kts | 206° |
| 2025-04-30 22:43 | 27.47774 | 86.63895 | 13311 ft | 161 kts | 206° |
| 2025-04-30 22:43 | 27.45774 | 86.62768 | 13915 ft | 162 kts | 206° |
| 2025-04-30 22:44 | 27.43767 | 86.61628 | 14533 ft | 160 kts | 206° |
| 2025-04-30 22:44 | 27.41787 | 86.60463 | 14861 ft | 163 kts | 206° |
| 2025-04-30 22:44 | 27.40773 | 86.59853 | 15028 ft | 171 kts | 206° |
| 2025-04-30 22:45 | 27.38519 | 86.58504 | 15050 ft | 195 kts | 206° |
| 2025-04-30 22:46 | 27.34742 | 86.56262 | 15040 ft | 210 kts | 206° |
| 2025-04-30 22:46 | 27.32146 | 86.54729 | 15042 ft | 211 kts | 206° |
| 2025-04-30 22:47 | 27.29531 | 86.53191 | 15002 ft | 212 kts | 205° |
| 2025-04-30 22:47 | 27.26703 | 86.53310 | 14993 ft | 210 kts | 162° |
| 2025-04-30 22:48 | 27.23816 | 86.53616 | 14999 ft | 207 kts | 184° |
| 2025-04-30 22:48 | 27.22386 | 86.53421 | 14999 ft | 206 kts | 186° |
| 2025-04-30 22:48 | 27.19487 | 86.53089 | 14742 ft | 216 kts | 184° |
| 2025-04-30 22:49 | 27.16444 | 86.52776 | 14163 ft | 223 kts | 184° |
| 2025-04-30 22:49 | 27.13316 | 86.52446 | 13586 ft | 228 kts | 184° |
| 2025-04-30 22:50 | 27.08570 | 86.51948 | 12664 ft | 228 kts | 183° |
| 2025-04-30 22:51 | 27.05438 | 86.51619 | 12046 ft | 224 kts | 183° |
| 2025-04-30 22:51 | 27.02356 | 86.51296 | 11464 ft | 223 kts | 183° |
| 2025-04-30 22:52 | 26.99288 | 86.50974 | 10892 ft | 219 kts | 183° |
| 2025-04-30 22:52 | 26.97767 | 86.50815 | 10614 ft | 219 kts | 183° |
| 2025-04-30 22:52 | 26.94724 | 86.50496 | 10031 ft | 219 kts | 184° |
| 2025-04-30 22:53 | 26.92180 | 86.50225 | 9354 ft | 143 kts | 182° |
| 2025-04-30 22:53 | 26.90450 | 86.50046 | 8598 ft | 119 kts | 181° |
| 2025-04-30 22:54 | 26.87866 | 86.49784 | 6779 ft | 126 kts | 181° |
| 2025-04-30 22:55 | 26.86110 | 86.49603 | 5620 ft | 127 kts | 181° |
| 2025-04-30 22:55 | 26.84596 | 86.49441 | 5317 ft | 93 kts | 179° |
| 2025-04-30 22:56 | 26.83249 | 86.49311 | 5388 ft | 112 kts | 181° |
| 2025-04-30 22:56 | 26.82366 | 86.49214 | 5354 ft | 142 kts | 177° |
| 2025-04-30 22:56 | 26.80380 | 86.48996 | 5148 ft | 136 kts | 178° |
| 2025-04-30 22:57 | 26.78593 | 86.48813 | 4938 ft | 122 kts | 175° |
| 2025-04-30 22:57 | 26.76976 | 86.48646 | 4743 ft | 116 kts | 174° |
| 2025-04-30 22:58 | 26.74445 | 86.48384 | 4464 ft | 133 kts | 175° |
| 2025-04-30 22:59 | 26.72536 | 86.48209 | 4406 ft | 139 kts | 169° |
| 2025-04-30 22:59 | 26.70730 | 86.48844 | 4385 ft | 138 kts | 152° |
| 2025-04-30 23:00 | 26.69010 | 86.49575 | 4321 ft | 130 kts | 150° |
| 2025-04-30 23:00 | 26.68152 | 86.49943 | 4201 ft | 134 kts | 151° |
| 2025-04-30 23:00 | 26.66320 | 86.50732 | 3928 ft | 146 kts | 152° |
| 2025-04-30 23:01 | 26.64448 | 86.51531 | 3643 ft | 146 kts | 152° |
| 2025-04-30 23:02 | 26.61512 | 86.52785 | 3198 ft | 148 kts | 153° |
| 2025-04-30 23:02 | 26.59549 | 86.53633 | 2741 ft | 157 kts | 152° |
| 2025-04-30 23:02 | 26.58629 | 86.54265 | 2499 ft | 156 kts | 135° |
| 2025-04-30 23:03 | 26.57291 | 86.56732 | 2361 ft | 120 kts | 113° |
| 2025-04-30 23:03 | 26.56952 | 86.57626 | 2380 ft | 130 kts | 112° |
| 2025-04-30 23:04 | 26.56215 | 86.59573 | 2382 ft | 138 kts | 113° |
| 2025-04-30 23:05 | 26.55166 | 86.62356 | 2254 ft | 119 kts | 113° |
| 2025-04-30 23:05 | 26.54870 | 86.63143 | 2096 ft | 101 kts | 112° |
| 2025-04-30 23:06 | 26.54163 | 86.65022 | 1776 ft | 79 kts | 115° |
| 2025-04-30 23:06 | 26.53727 | 86.66180 | 1569 ft | 83 kts | 112° |
| 2025-04-30 23:07 | 26.53289 | 86.67337 | 1355 ft | 80 kts | 111° |
| 2025-04-30 23:07 | 26.52870 | 86.68450 | 1147 ft | 72 kts | 106° |
| 2025-04-30 23:07 | 26.52664 | 86.69001 | 1068 ft | 79 kts | 112° |
| 2025-04-30 23:08 | 26.52008 | 86.70731 | 728 ft | 81 kts | 108° |
| 2025-04-30 23:08 | 26.51792 | 86.71312 | 612 ft | 83 kts | 111° |
| 2025-04-30 23:09 | 26.51349 | 86.72477 | 386 ft | 79 kts | 112° |
| 2025-04-30 23:10 | 26.50920 | 86.73620 | 252 ft | 20 kts | 114° |
| 2025-04-30 23:10 | 26.51004 | 86.73757 | 252 ft | 10 kts | 354° |